РПИ Якутск

Сквоки, район применения ICAO EUR-I:

Чульман 3240-3257

Мирный 0510-0527

Олекминск 0501-0504

Якутск 0505-0507, 3220-3237

Лого Якутск
Руководство

Sergey Balandin*

Куратор
Инструкторы РПИ
Denis Makosov * (Unknown)
Ivan Aksenenko (Instructor)
Sergey Balandin (Senior Instructor)
Входит в состав
Восточная Россия

Диспетчеры РПИ

Диспетчер Рейтинг Допуски *
Ashot Hakobyan Controller UEEE_CTR
Lihan Bao Controller UEEE_CTR
Maxim Osmolovskiy Controller UEEE_CTR
Sergey Balandin Senior Instructor UEEE_CTR
Egor Garifulin Student 2 UEEE_TWR!!!
Ivan Pivovarov Student UEEE_GND
Maxim Korobko Senior Student UEEE_APP
Michail Shlyachkov Student UEEE_GND*
Nikita Brynkov Student 2 UEEE_TWR
Nikita Zikeev Senior Student UEEE_APP

Аэропорты РПИ

ICAO Город Название Погода
UERL Ленск Ленск
UERR Мирный Мирный UERR 100900Z 29002MPS CAVOK M30/M33 Q1007 R25/820340 NOSIG RMK QFE724/0966
UELL Нерюнгри Чульман
UEST Тикси Тикси
UERP Удачный Полярный UERP 100900Z 28002MPS CAVOK M35/M38 Q1005 NOSIG RMK QFE710
UESS Черский Черский
UEEE Якутск Якутск UEEE 100900Z 36002MPS 2000 R23L/P2000N -SN BR NSC M40/M44 Q1011 R23L/490150 NOSIG RMK QFE749
UEMU Усть-Мая Усть-Мая